sensor_id;sensor_type;location;lat;lon;timestamp;temperature;humidity
3268;DHT22;1646;52.450;13.326;2022-09-23T00:01:43;10.00;99.90
3268;DHT22;1646;52.450;13.326;2022-09-23T00:06:42;10.00;99.90
3268;DHT22;1646;52.450;13.326;2022-09-23T00:11:40;9.90;99.90
3268;DHT22;1646;52.450;13.326;2022-09-23T00:16:40;9.90;99.90
3268;DHT22;1646;52.450;13.326;2022-09-23T00:21:38;9.90;99.90
3268;DHT22;1646;52.450;13.326;2022-09-23T00:26:36;9.80;99.90
3268;DHT22;1646;52.450;13.326;2022-09-23T00:31:34;9.80;99.90
3268;DHT22;1646;52.450;13.326;2022-09-23T00:36:34;9.70;99.90
3268;DHT22;1646;52.450;13.326;2022-09-23T00:41:32;9.70;99.90
3268;DHT22;1646;52.450;13.326;2022-09-23T00:46:34;9.70;99.90
3268;DHT22;1646;52.450;13.326;2022-09-23T00:51:37;9.60;99.90
3268;DHT22;1646;52.450;13.326;2022-09-23T00:56:37;9.60;99.90
3268;DHT22;1646;52.450;13.326;2022-09-23T01:01:36;9.60;99.90
3268;DHT22;1646;52.450;13.326;2022-09-23T01:06:36;9.60;99.90
3268;DHT22;1646;52.450;13.326;2022-09-23T01:11:43;9.60;99.90
3268;DHT22;1646;52.450;13.326;2022-09-23T01:16:46;9.60;99.90
3268;DHT22;1646;52.450;13.326;2022-09-23T01:21:54;9.60;99.90
3268;DHT22;1646;52.450;13.326;2022-09-23T01:27:09;9.50;99.90
3268;DHT22;1646;52.450;13.326;2022-09-23T01:32:17;9.50;99.90
3268;DHT22;1646;52.450;13.326;2022-09-23T01:37:23;9.40;99.90
3268;DHT22;1646;52.450;13.326;2022-09-23T01:42:27;9.40;99.90
3268;DHT22;1646;52.450;13.326;2022-09-23T01:47:32;9.40;99.90
3268;DHT22;1646;52.450;13.326;2022-09-23T01:52:37;9.40;99.90
3268;DHT22;1646;52.450;13.326;2022-09-23T01:57:39;9.30;99.90
3268;DHT22;1646;52.450;13.326;2022-09-23T02:02:42;9.30;99.90
3268;DHT22;1646;52.450;13.326;2022-09-23T02:07:50;9.30;99.90
3268;DHT22;1646;52.450;13.326;2022-09-23T02:12:51;9.30;99.90
3268;DHT22;1646;52.450;13.326;2022-09-23T02:17:54;9.20;99.90
3268;DHT22;1646;52.450;13.326;2022-09-23T02:23:00;9.10;99.90
3268;DHT22;1646;52.450;13.326;2022-09-23T02:28:06;9.10;99.90
3268;DHT22;1646;52.450;13.326;2022-09-23T02:33:13;9.10;99.90
3268;DHT22;1646;52.450;13.326;2022-09-23T02:38:18;9.10;99.90
3268;DHT22;1646;52.450;13.326;2022-09-23T02:43:20;8.90;99.90
3268;DHT22;1646;52.450;13.326;2022-09-23T02:48:24;8.90;99.90
3268;DHT22;1646;52.450;13.326;2022-09-23T02:53:24;8.90;99.90
3268;DHT22;1646;52.450;13.326;2022-09-23T02:58:28;8.90;99.90
3268;DHT22;1646;52.450;13.326;2022-09-23T03:03:38;8.90;99.90
3268;DHT22;1646;52.450;13.326;2022-09-23T03:08:45;8.90;99.90
3268;DHT22;1646;52.450;13.326;2022-09-23T03:14:03;9.00;99.90
3268;DHT22;1646;52.450;13.326;2022-09-23T03:19:17;8.90;99.90
3268;DHT22;1646;52.450;13.326;2022-09-23T03:24:18;8.80;99.90
3268;DHT22;1646;52.450;13.326;2022-09-23T03:29:17;8.70;99.90
3268;DHT22;1646;52.450;13.326;2022-09-23T03:34:21;8.70;99.90
3268;DHT22;1646;52.450;13.326;2022-09-23T03:39:29;8.70;99.90
3268;DHT22;1646;52.450;13.326;2022-09-23T03:44:28;8.70;99.90
3268;DHT22;1646;52.450;13.326;2022-09-23T03:49:31;8.70;99.90
3268;DHT22;1646;52.450;13.326;2022-09-23T03:54:31;8.80;99.90
3268;DHT22;1646;52.450;13.326;2022-09-23T03:59:29;8.70;99.90
3268;DHT22;1646;52.450;13.326;2022-09-23T04:04:29;8.60;99.90
3268;DHT22;1646;52.450;13.326;2022-09-23T04:09:28;8.60;99.90
3268;DHT22;1646;52.450;13.326;2022-09-23T04:14:26;8.50;99.90
3268;DHT22;1646;52.450;13.326;2022-09-23T04:19:24;8.50;99.90
3268;DHT22;1646;52.450;13.326;2022-09-23T04:24:24;8.40;99.90
3268;DHT22;1646;52.450;13.326;2022-09-23T04:29:23;8.40;99.90
3268;DHT22;1646;52.450;13.326;2022-09-23T04:34:21;8.40;99.90
3268;DHT22;1646;52.450;13.326;2022-09-23T04:39:19;8.40;99.90
3268;DHT22;1646;52.450;13.326;2022-09-23T04:44:19;8.40;99.90
3268;DHT22;1646;52.450;13.326;2022-09-23T04:49:17;8.50;99.90
3268;DHT22;1646;52.450;13.326;2022-09-23T04:54:15;8.50;99.90
3268;DHT22;1646;52.450;13.326;2022-09-23T04:59:13;8.50;99.90
3268;DHT22;1646;52.450;13.326;2022-09-23T05:04:12;8.40;99.90
3268;DHT22;1646;52.450;13.326;2022-09-23T05:09:13;8.40;99.90
3268;DHT22;1646;52.450;13.326;2022-09-23T05:14:12;8.40;99.90
3268;DHT22;1646;52.450;13.326;2022-09-23T05:19:12;8.40;99.90
3268;DHT22;1646;52.450;13.326;2022-09-23T05:24:10;8.50;99.90
3268;DHT22;1646;52.450;13.326;2022-09-23T05:29:08;8.50;99.90
3268;DHT22;1646;52.450;13.326;2022-09-23T05:34:08;8.60;99.90
3268;DHT22;1646;52.450;13.326;2022-09-23T05:39:08;8.60;99.90
3268;DHT22;1646;52.450;13.326;2022-09-23T05:44:06;8.60;99.90
3268;DHT22;1646;52.450;13.326;2022-09-23T05:49:04;8.70;99.90
3268;DHT22;1646;52.450;13.326;2022-09-23T05:54:03;8.80;99.90
3268;DHT22;1646;52.450;13.326;2022-09-23T05:59:04;8.90;99.90
3268;DHT22;1646;52.450;13.326;2022-09-23T06:04:04;9.00;99.90
3268;DHT22;1646;52.450;13.326;2022-09-23T06:09:04;9.20;99.90
3268;DHT22;1646;52.450;13.326;2022-09-23T06:14:03;9.30;99.90
3268;DHT22;1646;52.450;13.326;2022-09-23T06:19:02;9.50;99.90
3268;DHT22;1646;52.450;13.326;2022-09-23T06:24:03;9.70;99.90
3268;DHT22;1646;52.450;13.326;2022-09-23T06:29:07;9.80;99.90
3268;DHT22;1646;52.450;13.326;2022-09-23T06:34:05;10.00;99.90
3268;DHT22;1646;52.450;13.326;2022-09-23T06:39:08;10.20;99.90
3268;DHT22;1646;52.450;13.326;2022-09-23T06:44:08;10.40;99.90
3268;DHT22;1646;52.450;13.326;2022-09-23T06:49:07;10.80;99.90
3268;DHT22;1646;52.450;13.326;2022-09-23T06:54:05;10.70;99.90
3268;DHT22;1646;52.450;13.326;2022-09-23T06:59:04;11.00;99.90
3268;DHT22;1646;52.450;13.326;2022-09-23T07:04:03;11.20;99.90
3268;DHT22;1646;52.450;13.326;2022-09-23T07:09:04;11.50;99.90
3268;DHT22;1646;52.450;13.326;2022-09-23T07:14:02;11.60;99.90
3268;DHT22;1646;52.450;13.326;2022-09-23T07:19:02;11.90;99.90
3268;DHT22;1646;52.450;13.326;2022-09-23T07:24:01;12.10;99.90
3268;DHT22;1646;52.450;13.326;2022-09-23T07:29:01;12.30;99.90
3268;DHT22;1646;52.450;13.326;2022-09-23T07:34:05;12.40;99.90
3268;DHT22;1646;52.450;13.326;2022-09-23T07:39:04;12.60;99.90
3268;DHT22;1646;52.450;13.326;2022-09-23T07:44:03;12.70;99.90
3268;DHT22;1646;52.450;13.326;2022-09-23T07:49:03;13.00;99.90
3268;DHT22;1646;52.450;13.326;2022-09-23T07:54:03;13.30;99.90
3268;DHT22;1646;52.450;13.326;2022-09-23T07:59:03;13.30;99.90
3268;DHT22;1646;52.450;13.326;2022-09-23T08:04:05;13.50;99.90
3268;DHT22;1646;52.450;13.326;2022-09-23T08:09:03;13.60;99.90
3268;DHT22;1646;52.450;13.326;2022-09-23T08:14:01;13.80;99.90
3268;DHT22;1646;52.450;13.326;2022-09-23T08:19:00;14.50;99.90
3268;DHT22;1646;52.450;13.326;2022-09-23T08:23:59;15.30;99.90
3268;DHT22;1646;52.450;13.326;2022-09-23T08:28:58;16.30;99.90
3268;DHT22;1646;52.450;13.326;2022-09-23T08:33:57;16.90;99.90
3268;DHT22;1646;52.450;13.326;2022-09-23T08:38:55;18.00;99.90
3268;DHT22;1646;52.450;13.326;2022-09-23T08:43:58;19.00;99.90
3268;DHT22;1646;52.450;13.326;2022-09-23T08:48:59;19.70;99.90
3268;DHT22;1646;52.450;13.326;2022-09-23T08:53:58;20.50;99.90
3268;DHT22;1646;52.450;13.326;2022-09-23T08:59:04;21.60;99.90
3268;DHT22;1646;52.450;13.326;2022-09-23T09:04:13;22.70;99.90
3268;DHT22;1646;52.450;13.326;2022-09-23T09:09:20;23.20;99.90
3268;DHT22;1646;52.450;13.326;2022-09-23T09:14:24;24.10;98.90
3268;DHT22;1646;52.450;13.326;2022-09-23T09:19:41;24.40;97.60
3268;DHT22;1646;52.450;13.326;2022-09-23T09:24:44;25.30;95.90
3268;DHT22;1646;52.450;13.326;2022-09-23T09:29:48;26.20;90.80
3268;DHT22;1646;52.450;13.326;2022-09-23T09:34:51;26.40;89.40
3268;DHT22;1646;52.450;13.326;2022-09-23T09:39:51;27.20;87.30
3268;DHT22;1646;52.450;13.326;2022-09-23T09:44:54;27.50;78.60
3268;DHT22;1646;52.450;13.326;2022-09-23T09:49:56;27.70;76.40
3268;DHT22;1646;52.450;13.326;2022-09-23T09:55:22;28.20;70.00
3268;DHT22;1646;52.450;13.326;2022-09-23T10:00:41;28.40;70.50
3268;DHT22;1646;52.450;13.326;2022-09-23T10:05:47;30.20;71.30
3268;DHT22;1646;52.450;13.326;2022-09-23T10:10:49;30.70;60.70
3268;DHT22;1646;52.450;13.326;2022-09-23T10:15:53;29.90;55.30
3268;DHT22;1646;52.450;13.326;2022-09-23T10:20:59;29.30;52.30
3268;DHT22;1646;52.450;13.326;2022-09-23T10:25:59;29.90;54.00
3268;DHT22;1646;52.450;13.326;2022-09-23T10:31:07;30.00;52.00
3268;DHT22;1646;52.450;13.326;2022-09-23T10:36:08;29.10;51.20
3268;DHT22;1646;52.450;13.326;2022-09-23T10:41:15;30.00;51.20
3268;DHT22;1646;52.450;13.326;2022-09-23T10:46:36;30.80;48.60
3268;DHT22;1646;52.450;13.326;2022-09-23T10:51:47;29.40;49.50
3268;DHT22;1646;52.450;13.326;2022-09-23T10:56:53;28.30;51.00
3268;DHT22;1646;52.450;13.326;2022-09-23T11:02:09;27.20;52.80
3268;DHT22;1646;52.450;13.326;2022-09-23T11:07:19;26.40;53.10
3268;DHT22;1646;52.450;13.326;2022-09-23T11:12:26;25.90;54.50
3268;DHT22;1646;52.450;13.326;2022-09-23T11:17:58;25.30;54.50
3268;DHT22;1646;52.450;13.326;2022-09-23T11:23:33;24.00;53.60
3268;DHT22;1646;52.450;13.326;2022-09-23T11:28:48;23.20;54.20
3268;DHT22;1646;52.450;13.326;2022-09-23T11:33:58;22.90;57.10
3268;DHT22;1646;52.450;13.326;2022-09-23T11:39:06;23.00;57.50
3268;DHT22;1646;52.450;13.326;2022-09-23T11:44:13;23.00;55.10
3268;DHT22;1646;52.450;13.326;2022-09-23T11:49:18;22.60;56.90
3268;DHT22;1646;52.450;13.326;2022-09-23T11:54:20;21.80;56.00
3268;DHT22;1646;52.450;13.326;2022-09-23T11:59:29;21.50;57.60
3268;DHT22;1646;52.450;13.326;2022-09-23T12:04:39;21.80;58.00
3268;DHT22;1646;52.450;13.326;2022-09-23T12:09:56;22.20;61.30
3268;DHT22;1646;52.450;13.326;2022-09-23T12:15:02;22.60;59.40
3268;DHT22;1646;52.450;13.326;2022-09-23T12:20:15;23.00;57.00
3268;DHT22;1646;52.450;13.326;2022-09-23T12:25:32;23.00;58.30
3268;DHT22;1646;52.450;13.326;2022-09-23T12:30:33;22.90;59.20
3268;DHT22;1646;52.450;13.326;2022-09-23T12:35:39;22.40;57.80
3268;DHT22;1646;52.450;13.326;2022-09-23T12:40:38;21.70;57.90
3268;DHT22;1646;52.450;13.326;2022-09-23T12:45:39;21.40;60.30
3268;DHT22;1646;52.450;13.326;2022-09-23T12:50:55;21.60;59.80
3268;DHT22;1646;52.450;13.326;2022-09-23T12:55:54;21.30;59.20
3268;DHT22;1646;52.450;13.326;2022-09-23T13:01:05;21.00;59.10
3268;DHT22;1646;52.450;13.326;2022-09-23T13:06:06;21.10;59.10
3268;DHT22;1646;52.450;13.326;2022-09-23T13:11:27;21.00;58.10
3268;DHT22;1646;52.450;13.326;2022-09-23T13:16:30;20.90;58.40
3268;DHT22;1646;52.450;13.326;2022-09-23T13:21:59;20.90;60.00
3268;DHT22;1646;52.450;13.326;2022-09-23T13:27:04;20.40;58.70
3268;DHT22;1646;52.450;13.326;2022-09-23T13:32:10;20.20;60.00
3268;DHT22;1646;52.450;13.326;2022-09-23T13:37:16;20.20;60.90
3268;DHT22;1646;52.450;13.326;2022-09-23T13:42:24;20.50;62.20
3268;DHT22;1646;52.450;13.326;2022-09-23T13:47:24;20.50;62.00
3268;DHT22;1646;52.450;13.326;2022-09-23T13:52:26;20.30;59.80
3268;DHT22;1646;52.450;13.326;2022-09-23T13:57:27;20.40;61.00
3268;DHT22;1646;52.450;13.326;2022-09-23T14:02:25;20.60;61.50
3268;DHT22;1646;52.450;13.326;2022-09-23T14:07:25;20.60;59.90
3268;DHT22;1646;52.450;13.326;2022-09-23T14:12:24;20.70;61.40
3268;DHT22;1646;52.450;13.326;2022-09-23T14:17:22;21.00;62.00
3268;DHT22;1646;52.450;13.326;2022-09-23T14:22:22;21.10;59.80
3268;DHT22;1646;52.450;13.326;2022-09-23T14:27:26;20.80;59.50
3268;DHT22;1646;52.450;13.326;2022-09-23T14:32:25;20.40;60.30
3268;DHT22;1646;52.450;13.326;2022-09-23T14:37:28;20.60;62.30
3268;DHT22;1646;52.450;13.326;2022-09-23T14:42:48;21.00;62.60
3268;DHT22;1646;52.450;13.326;2022-09-23T14:47:50;20.90;60.60
3268;DHT22;1646;52.450;13.326;2022-09-23T14:52:49;21.00;62.60
3268;DHT22;1646;52.450;13.326;2022-09-23T14:58:00;21.20;66.10
3268;DHT22;1646;52.450;13.326;2022-09-23T15:03:00;21.20;65.60
3268;DHT22;1646;52.450;13.326;2022-09-23T15:08:00;21.30;66.30
3268;DHT22;1646;52.450;13.326;2022-09-23T15:13:06;21.10;63.90
3268;DHT22;1646;52.450;13.326;2022-09-23T15:18:10;20.80;63.00
3268;DHT22;1646;52.450;13.326;2022-09-23T15:23:32;20.60;65.90
3268;DHT22;1646;52.450;13.326;2022-09-23T15:28:32;20.40;64.20
3268;DHT22;1646;52.450;13.326;2022-09-23T15:33:30;20.10;66.70
3268;DHT22;1646;52.450;13.326;2022-09-23T15:38:30;19.90;66.50
3268;DHT22;1646;52.450;13.326;2022-09-23T15:43:28;19.90;70.00
3268;DHT22;1646;52.450;13.326;2022-09-23T15:48:29;19.80;68.80
3268;DHT22;1646;52.450;13.326;2022-09-23T15:53:28;19.70;69.20
3268;DHT22;1646;52.450;13.326;2022-09-23T15:58:27;19.60;72.60
3268;DHT22;1646;52.450;13.326;2022-09-23T16:03:26;19.40;72.30
3268;DHT22;1646;52.450;13.326;2022-09-23T16:08:26;19.30;74.70
3268;DHT22;1646;52.450;13.326;2022-09-23T16:13:24;19.20;77.50
3268;DHT22;1646;52.450;13.326;2022-09-23T16:18:22;19.30;78.30
3268;DHT22;1646;52.450;13.326;2022-09-23T16:23:23;19.80;80.80
3268;DHT22;1646;52.450;13.326;2022-09-23T16:28:31;19.90;76.40
3268;DHT22;1646;52.450;13.326;2022-09-23T16:33:29;19.80;77.10
3268;DHT22;1646;52.450;13.326;2022-09-23T16:38:28;19.50;77.10
3268;DHT22;1646;52.450;13.326;2022-09-23T16:43:26;19.20;80.50
3268;DHT22;1646;52.450;13.326;2022-09-23T16:48:26;19.00;80.20
3268;DHT22;1646;52.450;13.326;2022-09-23T16:53:27;18.70;82.60
3268;DHT22;1646;52.450;13.326;2022-09-23T16:58:25;18.40;83.80
3268;DHT22;1646;52.450;13.326;2022-09-23T17:03:23;18.20;83.50
3268;DHT22;1646;52.450;13.326;2022-09-23T17:08:38;17.90;83.60
3268;DHT22;1646;52.450;13.326;2022-09-23T17:13:37;17.60;85.10
3268;DHT22;1646;52.450;13.326;2022-09-23T17:18:38;17.30;84.50
3268;DHT22;1646;52.450;13.326;2022-09-23T17:23:35;17.20;86.30
3268;DHT22;1646;52.450;13.326;2022-09-23T17:28:35;17.00;87.60
3268;DHT22;1646;52.450;13.326;2022-09-23T17:33:34;16.80;90.10
3268;DHT22;1646;52.450;13.326;2022-09-23T17:38:33;16.60;90.70
3268;DHT22;1646;52.450;13.326;2022-09-23T17:43:31;16.50;91.30
3268;DHT22;1646;52.450;13.326;2022-09-23T17:48:32;16.30;91.80
3268;DHT22;1646;52.450;13.326;2022-09-23T17:53:32;16.20;92.30
3268;DHT22;1646;52.450;13.326;2022-09-23T17:58:32;16.00;93.10
3268;DHT22;1646;52.450;13.326;2022-09-23T18:03:31;15.90;94.10
3268;DHT22;1646;52.450;13.326;2022-09-23T18:08:29;15.80;94.90
3268;DHT22;1646;52.450;13.326;2022-09-23T18:13:27;15.80;95.40
3268;DHT22;1646;52.450;13.326;2022-09-23T18:18:25;15.70;96.00
3268;DHT22;1646;52.450;13.326;2022-09-23T18:23:25;15.60;97.30
3268;DHT22;1646;52.450;13.326;2022-09-23T18:28:22;15.60;97.60
3268;DHT22;1646;52.450;13.326;2022-09-23T18:33:21;15.60;98.10
3268;DHT22;1646;52.450;13.326;2022-09-23T18:38:19;15.50;97.90
3268;DHT22;1646;52.450;13.326;2022-09-23T18:43:18;15.50;97.90
3268;DHT22;1646;52.450;13.326;2022-09-23T18:48:21;15.50;98.10
3268;DHT22;1646;52.450;13.326;2022-09-23T18:53:33;15.40;98.30
3268;DHT22;1646;52.450;13.326;2022-09-23T18:58:32;15.50;99.90
3268;DHT22;1646;52.450;13.326;2022-09-23T19:03:31;15.40;99.60
3268;DHT22;1646;52.450;13.326;2022-09-23T19:08:29;15.40;99.70
3268;DHT22;1646;52.450;13.326;2022-09-23T19:13:28;15.30;99.60
3268;DHT22;1646;52.450;13.326;2022-09-23T19:18:27;15.30;99.70
3268;DHT22;1646;52.450;13.326;2022-09-23T19:23:26;15.20;99.90
3268;DHT22;1646;52.450;13.326;2022-09-23T19:28:24;15.10;99.90
3268;DHT22;1646;52.450;13.326;2022-09-23T19:33:23;15.00;99.90
3268;DHT22;1646;52.450;13.326;2022-09-23T19:38:22;14.90;99.90
3268;DHT22;1646;52.450;13.326;2022-09-23T19:43:20;14.80;99.90
3268;DHT22;1646;52.450;13.326;2022-09-23T19:48:18;14.70;99.90
3268;DHT22;1646;52.450;13.326;2022-09-23T19:53:16;14.60;99.90
3268;DHT22;1646;52.450;13.326;2022-09-23T19:58:15;14.60;99.90
3268;DHT22;1646;52.450;13.326;2022-09-23T20:03:13;14.50;99.90
3268;DHT22;1646;52.450;13.326;2022-09-23T20:08:13;14.50;99.90
3268;DHT22;1646;52.450;13.326;2022-09-23T20:13:11;14.40;99.90
3268;DHT22;1646;52.450;13.326;2022-09-23T20:18:11;14.30;99.90
3268;DHT22;1646;52.450;13.326;2022-09-23T20:23:09;14.30;99.90
3268;DHT22;1646;52.450;13.326;2022-09-23T20:28:07;14.20;99.90
3268;DHT22;1646;52.450;13.326;2022-09-23T20:33:05;14.20;99.90
3268;DHT22;1646;52.450;13.326;2022-09-23T20:38:04;14.20;99.90
3268;DHT22;1646;52.450;13.326;2022-09-23T20:43:04;14.10;99.90
3268;DHT22;1646;52.450;13.326;2022-09-23T20:48:02;14.10;99.90
3268;DHT22;1646;52.450;13.326;2022-09-23T20:53:01;14.00;99.90
3268;DHT22;1646;52.450;13.326;2022-09-23T20:58:00;13.90;99.90
3268;DHT22;1646;52.450;13.326;2022-09-23T21:02:59;13.90;99.90
3268;DHT22;1646;52.450;13.326;2022-09-23T21:07:58;13.90;99.90
3268;DHT22;1646;52.450;13.326;2022-09-23T21:13:00;13.90;99.90
3268;DHT22;1646;52.450;13.326;2022-09-23T21:17:59;13.80;99.90
3268;DHT22;1646;52.450;13.326;2022-09-23T21:22:57;13.90;99.90
3268;DHT22;1646;52.450;13.326;2022-09-23T21:27:55;13.90;99.90
3268;DHT22;1646;52.450;13.326;2022-09-23T21:32:55;13.80;99.90
3268;DHT22;1646;52.450;13.326;2022-09-23T21:37:55;13.80;99.90
3268;DHT22;1646;52.450;13.326;2022-09-23T21:42:56;13.80;99.90
3268;DHT22;1646;52.450;13.326;2022-09-23T21:47:56;13.80;99.90
3268;DHT22;1646;52.450;13.326;2022-09-23T21:52:54;13.80;99.90
3268;DHT22;1646;52.450;13.326;2022-09-23T21:57:52;13.80;99.90
3268;DHT22;1646;52.450;13.326;2022-09-23T22:02:51;13.80;99.90
3268;DHT22;1646;52.450;13.326;2022-09-23T22:07:50;13.80;99.90
3268;DHT22;1646;52.450;13.326;2022-09-23T22:12:50;13.80;99.90
3268;DHT22;1646;52.450;13.326;2022-09-23T22:17:48;13.80;99.90
3268;DHT22;1646;52.450;13.326;2022-09-23T22:22:46;13.80;99.90
3268;DHT22;1646;52.450;13.326;2022-09-23T22:27:45;13.80;99.90
3268;DHT22;1646;52.450;13.326;2022-09-23T22:32:57;13.80;99.90
3268;DHT22;1646;52.450;13.326;2022-09-23T22:37:58;13.80;99.90
3268;DHT22;1646;52.450;13.326;2022-09-23T22:42:58;13.80;99.90
3268;DHT22;1646;52.450;13.326;2022-09-23T22:47:56;13.80;99.90
3268;DHT22;1646;52.450;13.326;2022-09-23T22:52:54;13.80;99.90
3268;DHT22;1646;52.450;13.326;2022-09-23T22:57:53;13.80;99.90
3268;DHT22;1646;52.450;13.326;2022-09-23T23:02:53;13.80;99.90
3268;DHT22;1646;52.450;13.326;2022-09-23T23:07:53;13.70;99.90
3268;DHT22;1646;52.450;13.326;2022-09-23T23:12:52;13.70;99.90
3268;DHT22;1646;52.450;13.326;2022-09-23T23:17:52;13.70;99.90
3268;DHT22;1646;52.450;13.326;2022-09-23T23:22:55;13.70;99.90
3268;DHT22;1646;52.450;13.326;2022-09-23T23:27:53;13.60;99.90
3268;DHT22;1646;52.450;13.326;2022-09-23T23:32:53;13.60;99.90
3268;DHT22;1646;52.450;13.326;2022-09-23T23:37:51;13.60;99.90
3268;DHT22;1646;52.450;13.326;2022-09-23T23:42:49;13.60;99.90
3268;DHT22;1646;52.450;13.326;2022-09-23T23:47:47;13.60;99.90
3268;DHT22;1646;52.450;13.326;2022-09-23T23:52:46;13.60;99.90
3268;DHT22;1646;52.450;13.326;2022-09-23T23:57:44;13.50;99.90
